sensor_id;sensor_type;location;lat;lon;timestamp;pressure;altitude;pressure_sealevel;temperature;humidity
58668;BME280;59852;43.086;25.634;2023-03-23T00:00:50;98884.09;;;9.16;96.93
58668;BME280;59852;43.086;25.634;2023-03-23T00:03:15;98887.53;;;8.75;98.71
58668;BME280;59852;43.086;25.634;2023-03-23T00:05:40;98891.88;;;8.75;99.95
58668;BME280;59852;43.086;25.634;2023-03-23T00:08:06;98890.41;;;8.85;98.79
58668;BME280;59852;43.086;25.634;2023-03-23T00:10:34;98901.09;;;8.80;98.64
58668;BME280;59852;43.086;25.634;2023-03-23T00:13:00;98891.31;;;8.84;98.45
58668;BME280;59852;43.086;25.634;2023-03-23T00:15:28;98890.13;;;8.75;98.68
58668;BME280;59852;43.086;25.634;2023-03-23T00:17:58;98892.88;;;9.01;97.80
58668;BME280;59852;43.086;25.634;2023-03-23T00:20:30;98891.13;;;8.87;96.16
58668;BME280;59852;43.086;25.634;2023-03-23T00:23:02;98887.81;;;9.12;95.35
58668;BME280;59852;43.086;25.634;2023-03-23T00:25:29;98894.28;;;8.92;95.69
58668;BME280;59852;43.086;25.634;2023-03-23T00:27:54;98887.28;;;8.93;95.70
58668;BME280;59852;43.086;25.634;2023-03-23T00:30:19;98891.09;;;9.01;94.33
58668;BME280;59852;43.086;25.634;2023-03-23T00:32:45;98879.94;;;8.99;94.35
58668;BME280;59852;43.086;25.634;2023-03-23T00:35:10;98883.97;;;8.76;94.85
58668;BME280;59852;43.086;25.634;2023-03-23T00:37:35;98886.03;;;8.85;95.34
58668;BME280;59852;43.086;25.634;2023-03-23T00:40:01;98883.97;;;8.48;97.18
58668;BME280;59852;43.086;25.634;2023-03-23T00:42:30;98885.56;;;8.36;99.03
58668;BME280;59852;43.086;25.634;2023-03-23T00:45:01;98883.50;;;8.70;98.82
58668;BME280;59852;43.086;25.634;2023-03-23T00:47:27;98876.69;;;8.81;96.78
58668;BME280;59852;43.086;25.634;2023-03-23T00:49:52;98880.53;;;8.47;98.09
58668;BME280;59852;43.086;25.634;2023-03-23T00:52:20;98883.97;;;8.76;98.52
58668;BME280;59852;43.086;25.634;2023-03-23T00:54:46;98881.81;;;8.54;99.91
58668;BME280;59852;43.086;25.634;2023-03-23T00:57:11;98877.38;;;8.56;99.23
58668;BME280;59852;43.086;25.634;2023-03-23T00:59:36;98876.34;;;8.59;98.69
58668;BME280;59852;43.086;25.634;2023-03-23T01:02:02;98879.22;;;8.40;100.00
58668;BME280;59852;43.086;25.634;2023-03-23T01:04:27;98874.97;;;8.23;100.00
58668;BME280;59852;43.086;25.634;2023-03-23T01:06:53;98879.31;;;8.53;100.00
58668;BME280;59852;43.086;25.634;2023-03-23T01:09:19;98879.41;;;8.37;100.00
58668;BME280;59852;43.086;25.634;2023-03-23T01:11:46;98877.25;;;8.44;100.00
58668;BME280;59852;43.086;25.634;2023-03-23T01:14:13;98875.88;;;8.38;100.00
58668;BME280;59852;43.086;25.634;2023-03-23T01:16:38;98877.88;;;8.33;100.00
58668;BME280;59852;43.086;25.634;2023-03-23T01:19:04;98875.88;;;8.52;100.00
58668;BME280;59852;43.086;25.634;2023-03-23T01:21:29;98866.63;;;8.18;100.00
58668;BME280;59852;43.086;25.634;2023-03-23T01:23:55;98876.56;;;8.12;100.00
58668;BME280;59852;43.086;25.634;2023-03-23T01:26:21;98871.28;;;8.27;100.00
58668;BME280;59852;43.086;25.634;2023-03-23T01:28:47;98876.16;;;8.48;100.00
58668;BME280;59852;43.086;25.634;2023-03-23T01:31:14;98874.63;;;8.29;100.00
58668;BME280;59852;43.086;25.634;2023-03-23T01:33:40;98870.50;;;8.11;100.00
58668;BME280;59852;43.086;25.634;2023-03-23T01:36:07;98870.22;;;8.46;100.00
58668;BME280;59852;43.086;25.634;2023-03-23T01:38:33;98875.22;;;8.34;100.00
58668;BME280;59852;43.086;25.634;2023-03-23T01:40:59;98872.53;;;8.36;100.00
58668;BME280;59852;43.086;25.634;2023-03-23T01:43:24;98877.53;;;8.53;99.98
58668;BME280;59852;43.086;25.634;2023-03-23T01:45:50;98879.44;;;8.66;99.74
58668;BME280;59852;43.086;25.634;2023-03-23T01:48:29;98877.09;;;8.61;99.51
58668;BME280;59852;43.086;25.634;2023-03-23T01:51:17;98875.88;;;8.67;99.42
58668;BME280;59852;43.086;25.634;2023-03-23T01:53:46;98865.06;;;8.44;99.29
58668;BME280;59852;43.086;25.634;2023-03-23T01:56:14;98878.44;;;8.24;100.00
58668;BME280;59852;43.086;25.634;2023-03-23T01:58:41;98881.03;;;8.24;100.00
58668;BME280;59852;43.086;25.634;2023-03-23T02:01:11;98881.97;;;8.23;100.00
58668;BME280;59852;43.086;25.634;2023-03-23T02:03:39;98886.72;;;8.30;100.00
58668;BME280;59852;43.086;25.634;2023-03-23T02:06:06;98892.28;;;8.24;100.00
58668;BME280;59852;43.086;25.634;2023-03-23T02:08:31;98889.38;;;8.15;100.00
58668;BME280;59852;43.086;25.634;2023-03-23T02:10:58;98888.28;;;8.19;100.00
58668;BME280;59852;43.086;25.634;2023-03-23T02:13:23;98886.28;;;8.52;100.00
58668;BME280;59852;43.086;25.634;2023-03-23T02:21:20;98896.53;;;8.70;97.60
58668;BME280;59852;43.086;25.634;2023-03-23T02:26:11;98894.13;;;8.52;98.29
58668;BME280;59852;43.086;25.634;2023-03-23T02:36:13;98900.84;;;8.85;96.20
58668;BME280;59852;43.086;25.634;2023-03-23T02:38:44;98897.47;;;8.83;96.22
58668;BME280;59852;43.086;25.634;2023-03-23T02:41:16;98897.34;;;8.84;96.27
58668;BME280;59852;43.086;25.634;2023-03-23T02:43:43;98900.44;;;8.62;96.85
58668;BME280;59852;43.086;25.634;2023-03-23T02:46:09;98907.16;;;8.38;98.50
58668;BME280;59852;43.086;25.634;2023-03-23T02:48:35;98912.88;;;8.29;100.00
58668;BME280;59852;43.086;25.634;2023-03-23T02:51:01;98916.09;;;8.48;99.22
58668;BME280;59852;43.086;25.634;2023-03-23T02:53:27;98915.53;;;8.13;100.00
58668;BME280;59852;43.086;25.634;2023-03-23T02:55:54;98916.22;;;8.31;100.00
58668;BME280;59852;43.086;25.634;2023-03-23T02:58:21;98914.97;;;8.38;100.00
58668;BME280;59852;43.086;25.634;2023-03-23T03:00:48;98926.25;;;8.23;100.00
58668;BME280;59852;43.086;25.634;2023-03-23T03:03:15;98918.94;;;8.29;100.00
58668;BME280;59852;43.086;25.634;2023-03-23T03:05:46;98923.31;;;8.29;100.00
58668;BME280;59852;43.086;25.634;2023-03-23T03:10:50;98921.34;;;8.32;99.96
58668;BME280;59852;43.086;25.634;2023-03-23T03:18:37;98927.28;;;8.20;99.53
58668;BME280;59852;43.086;25.634;2023-03-23T03:21:06;98928.00;;;8.38;99.35
58668;BME280;59852;43.086;25.634;2023-03-23T03:23:33;98929.06;;;8.34;99.78
58668;BME280;59852;43.086;25.634;2023-03-23T03:26:00;98933.44;;;8.33;99.25
58668;BME280;59852;43.086;25.634;2023-03-23T03:28:30;98939.19;;;8.54;97.55
58668;BME280;59852;43.086;25.634;2023-03-23T03:30:57;98934.91;;;8.53;97.25
58668;BME280;59852;43.086;25.634;2023-03-23T03:33:25;98941.53;;;8.59;96.46
58668;BME280;59852;43.086;25.634;2023-03-23T03:35:55;98942.72;;;8.39;97.46
58668;BME280;59852;43.086;25.634;2023-03-23T03:38:21;98947.25;;;8.36;97.88
58668;BME280;59852;43.086;25.634;2023-03-23T03:40:46;98954.63;;;8.43;97.56
58668;BME280;59852;43.086;25.634;2023-03-23T03:43:12;98951.84;;;8.46;97.68
58668;BME280;59852;43.086;25.634;2023-03-23T03:45:37;98959.09;;;8.41;96.92
58668;BME280;59852;43.086;25.634;2023-03-23T03:48:03;98958.53;;;8.36;97.12
58668;BME280;59852;43.086;25.634;2023-03-23T03:50:28;98962.34;;;8.45;96.16
58668;BME280;59852;43.086;25.634;2023-03-23T03:52:54;98961.22;;;8.34;96.89
58668;BME280;59852;43.086;25.634;2023-03-23T03:55:19;98956.47;;;8.41;97.05
58668;BME280;59852;43.086;25.634;2023-03-23T03:57:45;98959.88;;;8.57;96.18
58668;BME280;59852;43.086;25.634;2023-03-23T04:00:10;98966.47;;;8.49;95.05
58668;BME280;59852;43.086;25.634;2023-03-23T04:02:43;98969.81;;;8.37;96.06
58668;BME280;59852;43.086;25.634;2023-03-23T04:05:09;98968.69;;;8.55;95.64
58668;BME280;59852;43.086;25.634;2023-03-23T04:07:35;98971.69;;;8.49;96.03
58668;BME280;59852;43.086;25.634;2023-03-23T04:10:03;98972.31;;;8.52;95.25
58668;BME280;59852;43.086;25.634;2023-03-23T04:12:30;98973.34;;;8.50;95.09
58668;BME280;59852;43.086;25.634;2023-03-23T04:14:55;98974.38;;;8.47;95.34
58668;BME280;59852;43.086;25.634;2023-03-23T04:17:21;98978.66;;;8.48;95.40
58668;BME280;59852;43.086;25.634;2023-03-23T04:19:46;98981.69;;;8.11;96.52
58668;BME280;59852;43.086;25.634;2023-03-23T04:22:12;98980.88;;;8.24;97.13
58668;BME280;59852;43.086;25.634;2023-03-23T04:24:37;98981.56;;;7.98;97.09
58668;BME280;59852;43.086;25.634;2023-03-23T04:27:03;98985.53;;;8.19;97.58
58668;BME280;59852;43.086;25.634;2023-03-23T04:29:28;98989.16;;;8.17;98.03
58668;BME280;59852;43.086;25.634;2023-03-23T04:31:53;98984.94;;;8.14;96.62
58668;BME280;59852;43.086;25.634;2023-03-23T04:34:21;98989.09;;;8.02;98.60
58668;BME280;59852;43.086;25.634;2023-03-23T04:36:46;98992.94;;;8.11;97.85
58668;BME280;59852;43.086;25.634;2023-03-23T04:39:12;98988.69;;;7.94;97.92
58668;BME280;59852;43.086;25.634;2023-03-23T04:41:38;98988.25;;;8.18;97.86
58668;BME280;59852;43.086;25.634;2023-03-23T04:44:04;98988.69;;;8.24;97.02
58668;BME280;59852;43.086;25.634;2023-03-23T04:46:30;98988.34;;;8.00;97.40
58668;BME280;59852;43.086;25.634;2023-03-23T04:48:56;98999.59;;;8.01;98.28
58668;BME280;59852;43.086;25.634;2023-03-23T04:51:24;98997.94;;;8.00;98.46
58668;BME280;59852;43.086;25.634;2023-03-23T04:53:49;98999.81;;;8.28;97.07
58668;BME280;59852;43.086;25.634;2023-03-23T04:56:15;98999.28;;;8.07;96.97
58668;BME280;59852;43.086;25.634;2023-03-23T04:58:40;99005.16;;;8.25;96.31
58668;BME280;59852;43.086;25.634;2023-03-23T05:01:06;99005.88;;;8.13;96.71
58668;BME280;59852;43.086;25.634;2023-03-23T05:03:31;99006.47;;;8.18;96.14
58668;BME280;59852;43.086;25.634;2023-03-23T05:05:57;99010.38;;;8.25;95.85
58668;BME280;59852;43.086;25.634;2023-03-23T05:08:22;99012.34;;;8.21;95.14
58668;BME280;59852;43.086;25.634;2023-03-23T05:10:53;99000.97;;;8.22;96.07
58668;BME280;59852;43.086;25.634;2023-03-23T05:13:18;99012.34;;;8.21;95.82
58668;BME280;59852;43.086;25.634;2023-03-23T05:15:44;99017.22;;;8.27;95.06
58668;BME280;59852;43.086;25.634;2023-03-23T05:18:09;99012.56;;;8.32;94.96
58668;BME280;59852;43.086;25.634;2023-03-23T05:20:36;99009.81;;;8.20;94.51
58668;BME280;59852;43.086;25.634;2023-03-23T05:23:01;99019.97;;;8.40;94.43
58668;BME280;59852;43.086;25.634;2023-03-23T05:25:26;99022.06;;;8.33;93.88
58668;BME280;59852;43.086;25.634;2023-03-23T05:27:52;99019.88;;;7.80;97.37
58668;BME280;59852;43.086;25.634;2023-03-23T05:30:20;99017.00;;;8.00;96.16
58668;BME280;59852;43.086;25.634;2023-03-23T05:32:46;99027.09;;;7.91;96.52
58668;BME280;59852;43.086;25.634;2023-03-23T05:35:15;99028.28;;;7.69;97.79
58668;BME280;59852;43.086;25.634;2023-03-23T05:37:40;99021.28;;;8.01;97.80
58668;BME280;59852;43.086;25.634;2023-03-23T05:40:06;99024.03;;;8.14;95.51
58668;BME280;59852;43.086;25.634;2023-03-23T05:42:32;99026.63;;;8.14;94.90
58668;BME280;59852;43.086;25.634;2023-03-23T05:44:58;99033.09;;;8.23;94.60
58668;BME280;59852;43.086;25.634;2023-03-23T05:47:24;99043.53;;;8.39;94.84
58668;BME280;59852;43.086;25.634;2023-03-23T05:49:50;99036.53;;;8.39;94.00
58668;BME280;59852;43.086;25.634;2023-03-23T05:52:15;99033.78;;;8.26;93.96
58668;BME280;59852;43.086;25.634;2023-03-23T05:54:41;99036.44;;;8.25;94.07
58668;BME280;59852;43.086;25.634;2023-03-23T05:57:06;99042.00;;;8.34;93.49
58668;BME280;59852;43.086;25.634;2023-03-23T05:59:33;99037.56;;;8.05;93.88
58668;BME280;59852;43.086;25.634;2023-03-23T06:01:59;99038.81;;;8.14;95.95
58668;BME280;59852;43.086;25.634;2023-03-23T06:04:24;99037.09;;;7.98;96.83
58668;BME280;59852;43.086;25.634;2023-03-23T06:06:50;99043.00;;;8.32;95.73
58668;BME280;59852;43.086;25.634;2023-03-23T06:09:17;99034.19;;;8.34;93.79
58668;BME280;59852;43.086;25.634;2023-03-23T06:11:42;99043.69;;;8.20;95.42
58668;BME280;59852;43.086;25.634;2023-03-23T06:14:08;99040.78;;;8.10;95.80
58668;BME280;59852;43.086;25.634;2023-03-23T06:16:33;99056.69;;;8.51;94.58
58668;BME280;59852;43.086;25.634;2023-03-23T06:18:58;99058.03;;;8.43;93.37
58668;BME280;59852;43.086;25.634;2023-03-23T06:21:25;99052.59;;;8.61;93.37
58668;BME280;59852;43.086;25.634;2023-03-23T06:23:51;99051.59;;;8.64;92.79
58668;BME280;59852;43.086;25.634;2023-03-23T06:26:17;99051.88;;;8.74;92.10
58668;BME280;59852;43.086;25.634;2023-03-23T06:28:43;99061.13;;;8.79;92.29
58668;BME280;59852;43.086;25.634;2023-03-23T06:31:09;99054.78;;;8.83;91.75
58668;BME280;59852;43.086;25.634;2023-03-23T06:33:37;99061.78;;;8.53;93.40
58668;BME280;59852;43.086;25.634;2023-03-23T06:36:03;99073.44;;;8.77;92.62
58668;BME280;59852;43.086;25.634;2023-03-23T06:38:29;99071.47;;;8.81;90.32
58668;BME280;59852;43.086;25.634;2023-03-23T06:40:55;99067.47;;;8.75;90.69
58668;BME280;59852;43.086;25.634;2023-03-23T06:43:22;99072.22;;;8.83;91.40
58668;BME280;59852;43.086;25.634;2023-03-23T06:45:47;99071.97;;;9.02;90.00
58668;BME280;59852;43.086;25.634;2023-03-23T06:48:13;99078.44;;;8.80;89.84
58668;BME280;59852;43.086;25.634;2023-03-23T06:50:38;99083.22;;;8.88;89.18
58668;BME280;59852;43.086;25.634;2023-03-23T06:53:07;99078.75;;;9.04;89.34
58668;BME280;59852;43.086;25.634;2023-03-23T06:55:32;99074.31;;;9.06;88.86
58668;BME280;59852;43.086;25.634;2023-03-23T06:57:57;99078.22;;;9.13;88.62
58668;BME280;59852;43.086;25.634;2023-03-23T07:00:24;99083.13;;;8.89;90.59
58668;BME280;59852;43.086;25.634;2023-03-23T07:02:50;99077.34;;;8.84;90.06
58668;BME280;59852;43.086;25.634;2023-03-23T07:05:15;99080.09;;;9.11;87.36
58668;BME280;59852;43.086;25.634;2023-03-23T07:07:41;99081.50;;;8.73;88.95
58668;BME280;59852;43.086;25.634;2023-03-23T07:10:07;99081.09;;;9.23;89.12
58668;BME280;59852;43.086;25.634;2023-03-23T07:12:34;99084.81;;;8.90;89.63
58668;BME280;59852;43.086;25.634;2023-03-23T07:15:01;99090.53;;;9.26;88.85
58668;BME280;59852;43.086;25.634;2023-03-23T07:17:26;99087.75;;;9.29;89.28
58668;BME280;59852;43.086;25.634;2023-03-23T07:19:52;99088.97;;;9.37;89.19
58668;BME280;59852;43.086;25.634;2023-03-23T07:22:17;99088.28;;;9.19;89.99
58668;BME280;59852;43.086;25.634;2023-03-23T07:24:42;99093.69;;;9.31;88.17
58668;BME280;59852;43.086;25.634;2023-03-23T07:27:08;99094.00;;;9.26;87.76
58668;BME280;59852;43.086;25.634;2023-03-23T07:29:34;99095.09;;;9.22;88.26
58668;BME280;59852;43.086;25.634;2023-03-23T07:32:01;99093.16;;;9.26;88.12
58668;BME280;59852;43.086;25.634;2023-03-23T07:34:26;99104.97;;;9.17;88.48
58668;BME280;59852;43.086;25.634;2023-03-23T07:36:52;99106.59;;;8.75;89.27
58668;BME280;59852;43.086;25.634;2023-03-23T07:39:17;99109.72;;;8.96;90.22
58668;BME280;59852;43.086;25.634;2023-03-23T07:41:43;99112.53;;;9.22;88.46
58668;BME280;59852;43.086;25.634;2023-03-23T07:44:08;99112.34;;;9.25;88.26
58668;BME280;59852;43.086;25.634;2023-03-23T07:46:33;99119.25;;;9.40;87.68
58668;BME280;59852;43.086;25.634;2023-03-23T07:48:59;99122.13;;;9.21;87.61
58668;BME280;59852;43.086;25.634;2023-03-23T07:51:25;99110.84;;;9.20;87.96
58668;BME280;59852;43.086;25.634;2023-03-23T07:53:51;99121.13;;;9.38;87.21
58668;BME280;59852;43.086;25.634;2023-03-23T07:56:16;99114.88;;;9.40;87.23
58668;BME280;59852;43.086;25.634;2023-03-23T07:58:44;99118.31;;;9.41;86.61
58668;BME280;59852;43.086;25.634;2023-03-23T08:01:10;99119.63;;;9.48;86.87
58668;BME280;59852;43.086;25.634;2023-03-23T08:03:36;99128.00;;;9.53;86.04
58668;BME280;59852;43.086;25.634;2023-03-23T08:06:02;99127.84;;;9.56;84.83
58668;BME280;59852;43.086;25.634;2023-03-23T08:08:27;99119.91;;;9.43;85.39
58668;BME280;59852;43.086;25.634;2023-03-23T08:10:53;99125.03;;;9.31;85.01
58668;BME280;59852;43.086;25.634;2023-03-23T08:13:18;99130.81;;;9.50;86.30
58668;BME280;59852;43.086;25.634;2023-03-23T08:15:44;99131.22;;;9.44;84.35
58668;BME280;59852;43.086;25.634;2023-03-23T08:18:10;99125.69;;;9.48;83.27
58668;BME280;59852;43.086;25.634;2023-03-23T08:20:35;99127.09;;;9.54;83.14
58668;BME280;59852;43.086;25.634;2023-03-23T08:23:01;99135.69;;;9.56;84.40
58668;BME280;59852;43.086;25.634;2023-03-23T08:25:27;99137.53;;;9.68;84.39
58668;BME280;59852;43.086;25.634;2023-03-23T08:27:54;99135.22;;;9.35;84.85
58668;BME280;59852;43.086;25.634;2023-03-23T08:30:20;99134.06;;;9.54;85.36
58668;BME280;59852;43.086;25.634;2023-03-23T08:32:47;99139.28;;;9.82;83.39
58668;BME280;59852;43.086;25.634;2023-03-23T08:35:13;99139.84;;;9.87;83.56
58668;BME280;59852;43.086;25.634;2023-03-23T08:37:40;99140.31;;;9.80;81.81
58668;BME280;59852;43.086;25.634;2023-03-23T08:40:06;99144.50;;;9.82;82.35
58668;BME280;59852;43.086;25.634;2023-03-23T08:42:34;99139.84;;;9.87;81.90
58668;BME280;59852;43.086;25.634;2023-03-23T08:44:59;99141.72;;;9.85;82.91
58668;BME280;59852;43.086;25.634;2023-03-23T08:47:25;99140.84;;;9.99;82.45
58668;BME280;59852;43.086;25.634;2023-03-23T08:49:51;99132.59;;;10.19;80.60
58668;BME280;59852;43.086;25.634;2023-03-23T08:52:19;99140.13;;;9.97;80.51
58668;BME280;59852;43.086;25.634;2023-03-23T08:54:44;99145.50;;;10.22;79.94
58668;BME280;59852;43.086;25.634;2023-03-23T08:57:12;99140.44;;;10.19;80.29
58668;BME280;59852;43.086;25.634;2023-03-23T08:59:37;99133.31;;;9.94;78.13
58668;BME280;59852;43.086;25.634;2023-03-23T09:02:03;99136.56;;;9.98;78.79
58668;BME280;59852;43.086;25.634;2023-03-23T09:04:28;99135.50;;;10.29;78.97
58668;BME280;59852;43.086;25.634;2023-03-23T09:06:55;99134.44;;;10.46;78.59
58668;BME280;59852;43.086;25.634;2023-03-23T09:09:22;99135.06;;;10.49;77.61
58668;BME280;59852;43.086;25.634;2023-03-23T09:11:47;99138.50;;;10.50;77.83
58668;BME280;59852;43.086;25.634;2023-03-23T09:14:12;99131.81;;;10.46;76.69
58668;BME280;59852;43.086;25.634;2023-03-23T09:16:38;99127.47;;;10.59;75.90
58668;BME280;59852;43.086;25.634;2023-03-23T09:19:03;99124.84;;;10.59;75.04
58668;BME280;59852;43.086;25.634;2023-03-23T09:21:29;99119.09;;;10.54;74.20
58668;BME280;59852;43.086;25.634;2023-03-23T09:23:54;99123.53;;;10.79;77.40
58668;BME280;59852;43.086;25.634;2023-03-23T09:26:23;99124.78;;;10.73;76.14
58668;BME280;59852;43.086;25.634;2023-03-23T09:28:49;99126.03;;;10.68;73.54
58668;BME280;59852;43.086;25.634;2023-03-23T09:31:14;99128.25;;;10.74;72.54
58668;BME280;59852;43.086;25.634;2023-03-23T09:33:39;99126.97;;;10.79;69.13
58668;BME280;59852;43.086;25.634;2023-03-23T09:36:05;99123.56;;;10.91;68.73
58668;BME280;59852;43.086;25.634;2023-03-23T09:38:33;99126.22;;;10.65;68.88
58668;BME280;59852;43.086;25.634;2023-03-23T09:43:43;99125.59;;;11.13;67.41
58668;BME280;59852;43.086;25.634;2023-03-23T09:51:13;99113.41;;;11.00;66.17
58668;BME280;59852;43.086;25.634;2023-03-23T09:53:40;99115.84;;;11.15;65.33
58668;BME280;59852;43.086;25.634;2023-03-23T09:56:11;99108.16;;;10.47;67.56
58668;BME280;59852;43.086;25.634;2023-03-23T09:58:50;99111.44;;;11.03;67.48
58668;BME280;59852;43.086;25.634;2023-03-23T10:03:45;99116.34;;;10.95;68.01
58668;BME280;59852;43.086;25.634;2023-03-23T10:06:16;99120.75;;;11.20;67.84
58668;BME280;59852;43.086;25.634;2023-03-23T10:08:47;99114.69;;;11.45;68.39
58668;BME280;59852;43.086;25.634;2023-03-23T10:14:08;99112.91;;;11.45;66.40
58668;BME280;59852;43.086;25.634;2023-03-23T10:16:43;99109.84;;;11.64;66.44
58668;BME280;59852;43.086;25.634;2023-03-23T10:22:05;99102.81;;;11.77;66.36
58668;BME280;59852;43.086;25.634;2023-03-23T10:24:40;99101.56;;;11.83;67.16
58668;BME280;59852;43.086;25.634;2023-03-23T10:28:09;99108.56;;;11.70;66.85
58668;BME280;59852;43.086;25.634;2023-03-23T10:30:07;99110.06;;;11.74;67.60
58668;BME280;59852;43.086;25.634;2023-03-23T10:32:44;99103.47;;;11.05;67.21
58668;BME280;59852;43.086;25.634;2023-03-23T10:35:16;99099.59;;;11.61;67.81
58668;BME280;59852;43.086;25.634;2023-03-23T10:37:46;99088.41;;;11.34;67.18
58668;BME280;59852;43.086;25.634;2023-03-23T10:40:17;99094.44;;;11.60;67.42
58668;BME280;59852;43.086;25.634;2023-03-23T10:42:44;99092.16;;;11.55;66.27
58668;BME280;59852;43.086;25.634;2023-03-23T10:50:27;99084.63;;;11.51;67.12
58668;BME280;59852;43.086;25.634;2023-03-23T10:52:54;99080.63;;;11.83;67.49
58668;BME280;59852;43.086;25.634;2023-03-23T10:55:23;99078.63;;;11.61;65.38
58668;BME280;59852;43.086;25.634;2023-03-23T10:57:59;99081.63;;;11.93;65.37
58668;BME280;59852;43.086;25.634;2023-03-23T11:00:26;99070.00;;;12.21;65.49
58668;BME280;59852;43.086;25.634;2023-03-23T11:05:25;99071.25;;;11.92;64.57
58668;BME280;59852;43.086;25.634;2023-03-23T11:07:55;99067.78;;;11.78;64.75
58668;BME280;59852;43.086;25.634;2023-03-23T11:10:47;99073.88;;;11.79;64.64
58668;BME280;59852;43.086;25.634;2023-03-23T11:13:13;99065.00;;;11.56;65.33
58668;BME280;59852;43.086;25.634;2023-03-23T11:15:40;99060.72;;;11.55;64.51
58668;BME280;59852;43.086;25.634;2023-03-23T11:18:12;99059.75;;;11.69;64.62
58668;BME280;59852;43.086;25.634;2023-03-23T11:20:42;99062.16;;;11.59;64.49
58668;BME280;59852;43.086;25.634;2023-03-23T11:23:17;99056.31;;;11.56;65.63
58668;BME280;59852;43.086;25.634;2023-03-23T11:28:22;99058.84;;;11.44;64.34
58668;BME280;59852;43.086;25.634;2023-03-23T11:30:52;99050.34;;;11.54;64.39
58668;BME280;59852;43.086;25.634;2023-03-23T11:33:18;99056.16;;;11.33;65.95
58668;BME280;59852;43.086;25.634;2023-03-23T11:35:44;99057.00;;;11.34;66.42
58668;BME280;59852;43.086;25.634;2023-03-23T11:38:18;99044.53;;;11.74;65.21
58668;BME280;59852;43.086;25.634;2023-03-23T11:40:48;99037.75;;;11.59;65.16
58668;BME280;59852;43.086;25.634;2023-03-23T11:43:14;99038.56;;;11.72;63.71
58668;BME280;59852;43.086;25.634;2023-03-23T11:45:45;99024.34;;;12.24;62.97
58668;BME280;59852;43.086;25.634;2023-03-23T11:58:31;99034.59;;;11.66;64.27
58668;BME280;59852;43.086;25.634;2023-03-23T12:01:35;99036.69;;;11.74;64.87
58668;BME280;59852;43.086;25.634;2023-03-23T12:14:16;99029.28;;;11.55;63.58
58668;BME280;59852;43.086;25.634;2023-03-23T12:24:29;99019.78;;;11.78;64.53
58668;BME280;59852;43.086;25.634;2023-03-23T12:36:56;99031.56;;;11.72;64.22
58668;BME280;59852;43.086;25.634;2023-03-23T12:47:35;99025.44;;;12.09;61.98
58668;BME280;59852;43.086;25.634;2023-03-23T12:50:05;99028.31;;;12.05;62.93
58668;BME280;59852;43.086;25.634;2023-03-23T12:57:48;99016.75;;;12.08;62.39
58668;BME280;59852;43.086;25.634;2023-03-23T13:07:56;99015.81;;;12.09;62.88
58668;BME280;59852;43.086;25.634;2023-03-23T13:10:27;99017.28;;;12.13;63.74
58668;BME280;59852;43.086;25.634;2023-03-23T13:12:53;99014.97;;;12.09;62.42
58668;BME280;59852;43.086;25.634;2023-03-23T13:25:51;99022.22;;;11.81;62.83
58668;BME280;59852;43.086;25.634;2023-03-23T13:28:24;99012.75;;;11.91;63.43
58668;BME280;59852;43.086;25.634;2023-03-23T13:30:58;99009.13;;;11.81;62.43
58668;BME280;59852;43.086;25.634;2023-03-23T13:33:24;99015.81;;;12.09;62.20
58668;BME280;59852;43.086;25.634;2023-03-23T13:35:50;99009.28;;;12.15;61.14
58668;BME280;59852;43.086;25.634;2023-03-23T13:40:45;98998.41;;;11.84;62.64
58668;BME280;59852;43.086;25.634;2023-03-23T13:43:10;98999.47;;;11.82;62.16
58668;BME280;59852;43.086;25.634;2023-03-23T13:45:42;99004.28;;;12.12;62.40
58668;BME280;59852;43.086;25.634;2023-03-23T13:53:15;99001.75;;;11.86;62.22
58668;BME280;59852;43.086;25.634;2023-03-23T13:56:04;99004.13;;;12.02;62.01
58668;BME280;59852;43.086;25.634;2023-03-23T13:58:30;99000.06;;;12.09;61.20
58668;BME280;59852;43.086;25.634;2023-03-23T14:01:09;98993.56;;;12.15;61.88
58668;BME280;59852;43.086;25.634;2023-03-23T14:03:37;98998.50;;;12.06;62.51
58668;BME280;59852;43.086;25.634;2023-03-23T14:06:05;98999.03;;;12.12;62.67
58668;BME280;59852;43.086;25.634;2023-03-23T14:10:58;98989.03;;;12.17;61.69
58668;BME280;59852;43.086;25.634;2023-03-23T14:15:54;98989.50;;;12.11;61.97
58668;BME280;59852;43.086;25.634;2023-03-23T14:18:21;98994.75;;;12.11;61.24
58668;BME280;59852;43.086;25.634;2023-03-23T14:20:46;98997.25;;;12.12;61.51
58668;BME280;59852;43.086;25.634;2023-03-23T14:23:16;98993.16;;;12.08;61.48
58668;BME280;59852;43.086;25.634;2023-03-23T14:25:42;98991.84;;;12.02;61.61
58668;BME280;59852;43.086;25.634;2023-03-23T14:28:17;98990.34;;;12.11;61.21
58668;BME280;59852;43.086;25.634;2023-03-23T14:30:43;98990.78;;;12.05;61.38
58668;BME280;59852;43.086;25.634;2023-03-23T14:33:09;98992.28;;;12.20;59.28
58668;BME280;59852;43.086;25.634;2023-03-23T14:35:38;98991.38;;;12.09;60.27
58668;BME280;59852;43.086;25.634;2023-03-23T14:38:06;98983.47;;;11.97;60.97
58668;BME280;59852;43.086;25.634;2023-03-23T14:40:36;98983.31;;;12.12;61.67
58668;BME280;59852;43.086;25.634;2023-03-23T14:43:03;98981.66;;;12.22;60.41
58668;BME280;59852;43.086;25.634;2023-03-23T14:45:30;98978.22;;;12.21;61.44
58668;BME280;59852;43.086;25.634;2023-03-23T14:47:57;98979.16;;;12.20;61.24
58668;BME280;59852;43.086;25.634;2023-03-23T14:50:25;98973.31;;;11.93;61.47
58668;BME280;59852;43.086;25.634;2023-03-23T14:52:51;98972.97;;;11.97;61.76
58668;BME280;59852;43.086;25.634;2023-03-23T14:55:20;98975.47;;;11.99;62.23
58668;BME280;59852;43.086;25.634;2023-03-23T14:57:46;98976.66;;;11.95;61.20
58668;BME280;59852;43.086;25.634;2023-03-23T15:02:39;98970.22;;;11.99;62.60
58668;BME280;59852;43.086;25.634;2023-03-23T15:07:32;98973.25;;;12.05;61.35
58668;BME280;59852;43.086;25.634;2023-03-23T15:09:58;98966.34;;;12.04;62.40
58668;BME280;59852;43.086;25.634;2023-03-23T15:12:24;98965.78;;;11.88;64.19